Time;durP1;ratioP1;P1;durP2;ratioP2;P2;SDS_P1;SDS_P2;PMS_P1;PMS_P2;Temp;Humidity;BMP_temperature;BMP_pressure;BME280_temperature;BME280_humidity;BME280_pressure;Samples;Min_cycle;Max_cycle;Signal;HPM_P1;HPM_P2
2023/07/25 00:01:08;;;;;;;81.12;75.85;;;;;;;21.78;58.95;98738.59;1739205;81;25590;-67
2023/07/25 00:03:34;;;;;;;85.00;79.37;;;;;;;21.75;59.44;98736.07;1765270;81;27430;-66
2023/07/25 00:06:03;;;;;;;85.87;80.03;;;;;;;21.72;59.57;98731.41;1765376;81;25465;-67
2023/07/25 00:08:31;;;;;;;83.37;77.55;;;;;;;21.69;59.60;98730.10;1765430;81;27587;-66
2023/07/25 00:11:00;;;;;;;84.90;79.37;;;;;;;21.64;59.65;98732.16;1765356;81;32843;-66
2023/07/25 00:13:28;;;;;;;84.32;78.50;;;;;;;21.62;60.49;98737.31;1765342;81;25578;-66
2023/07/25 00:15:54;;;;;;;82.72;77.30;;;;;;;21.54;60.54;98729.01;1765392;81;25483;-66
2023/07/25 00:18:21;;;;;;;82.72;77.25;;;;;;;21.50;61.18;98720.03;1765316;81;25391;-66
2023/07/25 00:20:47;;;;;;;80.22;75.03;;;;;;;21.42;61.31;98720.74;1738912;81;28054;-66
2023/07/25 00:23:13;;;;;;;68.72;64.10;;;;;;;21.38;61.59;98744.00;1763040;81;25555;-67
2023/07/25 00:25:39;;;;;;;19.12;17.23;;;;;;;21.37;61.68;98746.58;1763182;81;25454;-66
2023/07/25 00:28:05;;;;;;;16.30;14.63;;;;;;;21.34;61.94;98748.19;1763086;81;25613;-66
2023/07/25 00:30:31;;;;;;;28.35;25.68;;;;;;;21.30;62.27;98746.11;1763285;81;25395;-66
2023/07/25 00:32:57;;;;;;;64.85;60.45;;;;;;;21.29;62.13;98750.65;1763148;81;27301;-67
2023/07/25 00:35:24;;;;;;;84.28;78.33;;;;;;;21.25;62.50;98744.61;1763013;81;25634;-67
2023/07/25 00:37:50;;;;;;;82.85;77.67;;;;;;;21.22;62.51;98753.69;1763101;81;25419;-66
2023/07/25 00:40:16;;;;;;;85.72;80.32;;;;;;;21.20;62.93;98751.19;1763088;81;25583;-67
2023/07/25 00:42:44;;;;;;;84.13;78.65;;;;;;;21.17;62.63;98754.16;1739234;81;25628;-66
2023/07/25 00:45:10;;;;;;;88.27;82.57;;;;;;;21.16;62.87;98742.20;1763163;81;27330;-66
2023/07/25 00:47:36;;;;;;;85.45;79.90;;;;;;;21.17;63.12;98738.27;1763027;81;25619;-66
2023/07/25 00:50:05;;;;;;;85.95;80.15;;;;;;;21.15;63.01;98733.20;1738942;81;25465;-65
2023/07/25 00:52:32;;;;;;;83.72;77.90;;;;;;;21.14;63.07;98737.73;1739149;81;25450;-66
2023/07/25 00:54:58;;;;;;;83.22;77.75;;;;;;;21.12;63.36;98740.12;1763110;81;25617;-65
2023/07/25 00:57:24;;;;;;;85.28;79.70;;;;;;;21.08;63.50;98738.81;1763102;81;27342;-66
2023/07/25 00:59:50;;;;;;;85.42;79.72;;;;;;;21.05;63.60;98734.91;1763081;81;25423;-66
2023/07/25 01:02:17;;;;;;;83.47;77.97;;;;;;;20.99;63.86;98728.33;1738984;81;25563;-66
2023/07/25 01:04:44;;;;;;;85.62;80.03;;;;;;;20.99;64.76;98746.80;1763063;81;25613;-66
2023/07/25 01:07:13;;;;;;;84.97;79.45;;;;;;;20.95;64.41;98755.71;1763190;81;25624;-66
2023/07/25 01:09:44;;;;;;;85.03;79.53;;;;;;;20.89;64.45;98754.81;1763215;81;27391;-66
2023/07/25 01:12:13;;;;;;;89.15;83.40;;;;;;;20.85;64.72;98756.05;1763072;81;25437;-66
2023/07/25 01:14:41;;;;;;;84.03;78.40;;;;;;;20.81;64.86;98747.86;1763165;81;25576;-66
2023/07/25 01:17:18;;;;;;;86.08;80.30;;;;;;;20.77;65.09;98754.02;1763137;81;26064;-67
2023/07/25 01:19:48;;;;;;;85.45;80.03;;;;;;;20.73;65.39;98762.89;1763516;81;25456;-66
2023/07/25 01:22:15;;;;;;;84.30;78.65;;;;;;;20.68;65.70;98752.37;1712265;81;27974;-67
2023/07/25 01:24:45;;;;;;;85.97;80.03;;;;;;;20.65;65.91;98758.69;1736642;81;25474;-66
2023/07/25 01:27:14;;;;;;;88.12;82.33;;;;;;;20.62;65.92;98759.48;1764781;81;25507;-66
2023/07/25 01:29:41;;;;;;;84.30;78.83;;;;;;;20.57;66.38;98751.13;1764810;81;25624;-66
2023/07/25 01:32:10;;;;;;;85.42;79.92;;;;;;;20.55;66.27;98743.91;1764780;81;25544;-67
2023/07/25 01:34:39;;;;;;;86.72;80.80;;;;;;;20.56;66.39;98741.92;1736869;81;27909;-66
2023/07/25 01:37:08;;;;;;;86.00;80.28;;;;;;;20.65;66.90;98742.20;1764815;81;25618;-66
2023/07/25 01:39:34;;;;;;;83.35;78.00;;;;;;;20.53;66.67;98733.33;1764995;81;25605;-66
2023/07/25 01:42:01;;;;;;;82.95;77.37;;;;;;;20.52;66.88;98738.63;1764751;81;25623;-66
2023/07/25 01:44:27;;;;;;;84.37;78.95;;;;;;;20.51;66.87;98733.55;1764775;81;25606;-66
2023/07/25 01:46:57;;;;;;;84.83;79.22;;;;;;;20.50;66.91;98723.17;1764755;81;27450;-66
2023/07/25 01:49:23;;;;;;;85.42;79.92;;;;;;;20.51;67.38;98725.31;1764677;81;25636;-66
2023/07/25 01:51:50;;;;;;;85.20;79.58;;;;;;;20.49;67.18;98727.09;1764925;81;25594;-66
2023/07/25 01:54:17;;;;;;;82.82;77.42;;;;;;;20.48;67.32;98737.12;1764892;81;25405;-66
2023/07/25 01:56:44;;;;;;;82.80;77.27;;;;;;;20.47;67.32;98730.09;1764898;81;25427;-66
2023/07/25 01:59:12;;;;;;;86.95;81.32;;;;;;;20.45;67.50;98730.50;1764873;81;27323;-67
2023/07/25 02:01:38;;;;;;;84.15;78.40;;;;;;;20.44;67.55;98728.94;1736634;81;25582;-67
2023/07/25 02:04:04;;;;;;;81.97;76.65;;;;;;;20.44;67.93;98730.91;1764880;81;25508;-67
2023/07/25 02:06:30;;;;;;;83.30;77.45;;;;;;;20.41;67.74;98731.13;1764865;81;34844;-67
2023/07/25 02:08:56;;;;;;;84.50;78.92;;;;;;;20.37;68.16;98724.92;1736874;81;25467;-66
2023/07/25 02:11:22;;;;;;;83.72;78.17;;;;;;;20.36;67.97;98723.95;1764896;81;27314;-67
2023/07/25 02:13:48;;;;;;;85.28;79.77;;;;;;;20.32;68.12;98722.03;1764804;81;32898;-67
2023/07/25 02:16:14;;;;;;;84.47;79.00;;;;;;;20.30;68.46;98720.30;1764884;81;25535;-67
2023/07/25 02:18:41;;;;;;;80.70;75.52;;;;;;;20.27;68.44;98727.22;1764849;81;25980;-67
2023/07/25 02:21:07;;;;;;;85.85;80.35;;;;;;;20.23;69.12;98735.50;1764788;80;25531;-67
2023/07/25 02:23:33;;;;;;;85.00;79.45;;;;;;;20.19;68.66;98730.63;1764854;81;27285;-67
2023/07/25 02:25:59;;;;;;;83.00;77.37;;;;;;;20.16;68.97;98734.23;1764888;81;25679;-67
2023/07/25 02:28:25;;;;;;;83.92;78.57;;;;;;;20.11;69.20;98731.34;1764923;81;25630;-67
2023/07/25 02:30:51;;;;;;;86.00;80.32;;;;;;;20.08;69.57;98725.29;1736909;81;35269;-67
2023/07/25 02:33:17;;;;;;;85.38;79.80;;;;;;;20.05;69.61;98719.84;1736944;81;25647;-66
2023/07/25 02:35:43;;;;;;;83.20;77.62;;;;;;;20.00;69.55;98729.30;1764942;81;27415;-66
2023/07/25 02:38:10;;;;;;;86.25;80.75;;;;;;;19.98;69.68;98728.17;1764755;81;25579;-67
2023/07/25 02:40:37;;;;;;;86.63;80.85;;;;;;;19.93;70.02;98725.28;1764883;81;25391;-67
2023/07/25 02:43:07;;;;;;;85.25;79.55;;;;;;;19.88;70.21;98721.63;1764840;81;25454;-67
2023/07/25 02:45:35;;;;;;;86.35;80.53;;;;;;;19.86;70.37;98721.26;1764924;81;25394;-67
2023/07/25 02:48:02;;;;;;;83.60;77.92;;;;;;;19.81;70.42;98719.73;1764834;81;27359;-69
2023/07/25 02:50:29;;;;;;;86.50;80.60;;;;;;;19.78;70.68;98724.09;1764830;81;25698;-65
2023/07/25 02:52:55;;;;;;;86.82;81.17;;;;;;;19.74;70.82;98715.67;1764834;81;25555;-66
2023/07/25 02:55:21;;;;;;;83.40;77.87;;;;;;;19.70;71.01;98721.78;1764818;81;25476;-66
2023/07/25 02:57:47;;;;;;;85.17;79.25;;;;;;;19.67;71.27;98722.02;1736936;81;25556;-66
2023/07/25 03:00:15;;;;;;;84.50;78.97;;;;;;;19.65;71.45;98722.23;1764849;81;27410;-66
2023/07/25 03:02:41;;;;;;;85.87;80.10;;;;;;;19.60;71.56;98731.70;1736161;81;25784;-66
2023/07/25 03:05:09;;;;;;;84.92;79.22;;;;;;;19.57;71.83;98732.51;1764821;81;25567;-66
2023/07/25 03:07:35;;;;;;;83.72;78.12;;;;;;;19.53;72.30;98725.69;1764830;81;25484;-66
2023/07/25 03:10:03;;;;;;;87.47;81.72;;;;;;;19.50;72.11;98730.61;1764834;81;26944;-66
2023/07/25 03:12:29;;;;;;;84.00;78.45;;;;;;;19.48;72.64;98736.30;1764862;81;27342;-66
2023/07/25 03:14:56;;;;;;;87.72;81.92;;;;;;;19.44;72.29;98730.86;1764742;81;27185;-66
2023/07/25 03:17:22;;;;;;;85.90;80.20;;;;;;;19.44;72.62;98730.86;1764921;81;25411;-66
2023/07/25 03:19:49;;;;;;;85.70;79.92;;;;;;;19.41;72.60;98722.88;1764826;81;25873;-66
2023/07/25 03:22:19;;;;;;;85.62;80.05;;;;;;;19.40;72.94;98722.67;1765328;80;25439;-66
2023/07/25 03:24:46;;;;;;;83.50;77.97;;;;;;;19.38;73.13;98726.42;1765405;81;29566;-67
2023/07/25 03:27:12;;;;;;;85.03;79.30;;;;;;;19.38;73.38;98737.39;1739258;81;25604;-68
2023/07/25 03:29:39;;;;;;;82.90;77.25;;;;;;;19.37;73.55;98733.08;1739321;81;25473;-67
2023/07/25 03:32:07;;;;;;;85.30;79.60;;;;;;;19.36;73.66;98732.91;1739265;81;26131;-67
2023/07/25 03:34:33;;;;;;;84.05;78.30;;;;;;;19.35;73.82;98745.05;1765437;81;25465;-66
2023/07/25 03:37:00;;;;;;;85.90;79.87;;;;;;;19.34;73.92;98746.25;1765373;81;27422;-67
2023/07/25 03:39:26;;;;;;;80.95;75.55;;;;;;;19.35;73.83;98739.56;1739181;81;25628;-66
2023/07/25 03:41:52;;;;;;;79.82;74.40;;;;;;;19.36;74.06;98745.84;1765371;81;25613;-67
2023/07/25 03:44:19;;;;;;;85.22;79.53;;;;;;;19.36;74.50;98748.59;1765361;81;25418;-67
2023/07/25 03:46:46;;;;;;;84.17;78.52;;;;;;;19.35;74.57;98749.76;1765446;81;25539;-67
2023/07/25 03:49:14;;;;;;;87.82;82.00;;;;;;;19.34;74.43;98752.30;1765415;81;27392;-67
2023/07/25 03:51:40;;;;;;;86.17;80.32;;;;;;;19.34;74.59;98754.47;1765452;81;25559;-67
2023/07/25 03:54:08;;;;;;;85.20;79.35;;;;;;;19.34;74.74;98759.95;1739213;81;25482;-67
2023/07/25 03:56:36;;;;;;;84.22;78.37;;;;;;;19.33;74.96;98761.13;1765385;81;25491;-67
2023/07/25 03:59:02;;;;;;;86.27;79.97;;;;;;;19.35;75.26;98763.47;1765668;81;25605;-67
2023/07/25 04:01:31;;;;;;;85.77;79.82;;;;;;;19.35;75.51;98760.13;1765357;81;27437;-67
2023/07/25 04:03:58;;;;;;;87.45;81.08;;;;;;;19.34;75.61;98764.06;1765239;81;27156;-66
2023/07/25 04:06:24;;;;;;;84.92;78.78;;;;;;;19.38;75.56;98768.14;1765380;81;25603;-66
2023/07/25 04:08:51;;;;;;;84.52;78.97;;;;;;;19.41;75.62;98763.23;1765289;81;25463;-66
2023/07/25 04:11:17;;;;;;;87.75;81.75;;;;;;;19.46;75.81;98767.47;1765520;81;25591;-68
2023/07/25 04:13:43;;;;;;;85.12;79.42;;;;;;;19.48;75.74;98763.16;1765385;81;27350;-68
2023/07/25 04:16:09;;;;;;;87.87;81.70;;;;;;;19.51;75.65;98771.94;1739188;81;28441;-67
2023/07/25 04:18:35;;;;;;;87.78;81.90;;;;;;;19.54;75.69;98766.22;1739238;81;25451;-68
2023/07/25 04:21:01;;;;;;;86.25;80.35;;;;;;;19.58;75.68;98766.95;1765224;80;25394;-68
2023/07/25 04:23:28;;;;;;;83.35;77.42;;;;;;;19.60;75.73;98772.23;1765381;81;25563;-68
2023/07/25 04:25:54;;;;;;;83.80;78.02;;;;;;;19.64;75.62;98776.31;1765335;81;27381;-67
2023/07/25 04:28:20;;;;;;;87.37;81.40;;;;;;;19.68;75.76;98787.24;1765233;81;25682;-67
2023/07/25 04:30:46;;;;;;;86.82;80.87;;;;;;;19.71;75.74;98781.72;1765350;81;25603;-67
2023/07/25 04:33:12;;;;;;;85.97;79.95;;;;;;;19.75;75.77;98784.45;1765262;81;25611;-67
2023/07/25 04:35:38;;;;;;;86.08;80.20;;;;;;;19.78;75.82;98778.95;1765385;81;31453;-68
2023/07/25 04:38:04;;;;;;;85.53;79.60;;;;;;;19.88;75.68;98787.47;1765352;81;27408;-68
2023/07/25 04:40:31;;;;;;;85.30;79.58;;;;;;;19.95;75.76;98781.32;1765256;81;25528;-68
2023/07/25 04:42:57;;;;;;;86.25;80.12;;;;;;;20.05;75.81;98780.99;1765340;81;29565;-67
2023/07/25 04:45:23;;;;;;;86.28;80.47;;;;;;;20.12;75.42;98786.39;1765325;81;25483;-66
2023/07/25 04:47:49;;;;;;;86.53;80.62;;;;;;;20.21;75.33;98791.98;1765330;81;25422;-67
2023/07/25 04:50:15;;;;;;;87.17;81.53;;;;;;;20.28;75.13;98787.80;1765281;81;27310;-67
2023/07/25 04:52:41;;;;;;;18.80;9.03;;;;;;;20.38;75.11;98786.09;1765216;81;25541;-67
2023/07/25 04:55:09;;;;;;;14.45;9.33;;;;;;;20.49;74.75;98792.23;1765353;81;25621;-67
2023/07/25 04:57:35;;;;;;;17.45;8.18;;;;;;;20.57;74.39;98787.41;1739145;81;25409;-67
2023/07/25 05:00:05;;;;;;;12.13;7.70;;;;;;;20.65;74.16;98799.31;1765452;81;25618;-64
2023/07/25 05:02:31;;;;;;;14.30;7.75;;;;;;;20.69;73.18;98797.89;1765464;81;27317;-62
2023/07/25 05:04:57;;;;;;;15.60;12.10;;;;;;;20.83;72.46;98807.29;1765264;81;25622;-63
2023/07/25 05:07:23;;;;;;;10.85;6.83;;;;;;;20.91;71.88;98801.11;1765321;81;25627;-62
2023/07/25 05:09:50;;;;;;;16.42;9.50;;;;;;;21.04;71.32;98802.67;1765254;81;25563;-63
2023/07/25 05:12:16;;;;;;;11.33;7.00;;;;;;;21.17;70.44;98802.88;1765332;81;25641;-62
2023/07/25 05:14:42;;;;;;;84.42;79.10;;;;;;;21.29;69.94;98801.52;1764450;81;27502;-63
2023/07/25 05:17:08;;;;;;;84.45;78.92;;;;;;;21.39;69.17;98799.95;1764482;81;25629;-62
2023/07/25 05:19:34;;;;;;;80.70;75.70;;;;;;;21.52;68.21;98806.25;1764709;81;25565;-62
2023/07/25 05:22:01;;;;;;;79.75;74.72;;;;;;;21.60;67.58;98800.81;1763207;81;25686;-63
2023/07/25 05:24:27;;;;;;;80.03;75.00;;;;;;;21.64;67.34;98800.94;1749237;80;25731;-63
2023/07/25 05:26:53;;;;;;;81.32;75.95;;;;;;;21.74;67.09;98808.03;1762473;81;27392;-62
2023/07/25 05:29:19;;;;;;;81.08;75.83;;;;;;;21.85;67.05;98798.22;1762639;81;25551;-62
2023/07/25 05:31:46;;;;;;;79.90;74.62;;;;;;;21.98;66.49;98800.50;1763103;81;25516;-64
2023/07/25 05:34:12;;;;;;;83.95;78.75;;;;;;;22.11;66.15;98808.92;1763069;81;25551;-62
2023/07/25 05:36:38;;;;;;;80.30;75.30;;;;;;;22.23;65.35;98798.64;1763160;81;25578;-62
2023/07/25 05:39:04;;;;;;;80.62;75.62;;;;;;;22.33;64.97;98792.17;1763141;81;27395;-62
2023/07/25 05:41:30;;;;;;;80.67;75.60;;;;;;;22.47;64.60;98795.83;1763103;81;25442;-62
2023/07/25 05:43:57;;;;;;;81.12;76.28;;;;;;;22.63;64.22;98794.51;1763150;80;25471;-63
2023/07/25 05:46:23;;;;;;;80.25;75.35;;;;;;;22.77;63.63;98794.79;1763122;80;25457;-63
2023/07/25 05:48:49;;;;;;;82.50;77.40;;;;;;;22.87;63.13;98787.48;1763175;80;25453;-63
2023/07/25 05:51:15;;;;;;;81.35;76.22;;;;;;;23.00;62.85;98793.84;1763135;81;27309;-54
2023/07/25 05:53:41;;;;;;;80.38;75.52;;;;;;;23.09;62.13;98794.08;1763028;81;25397;-57
2023/07/25 05:56:07;;;;;;;78.78;73.92;;;;;;;23.19;61.95;98799.17;1763130;81;25554;-61
2023/07/25 05:58:33;;;;;;;80.35;75.55;;;;;;;23.25;61.25;98797.42;1763115;81;25409;-57
2023/07/25 06:01:00;;;;;;;82.10;77.20;;;;;;;23.32;60.73;98799.23;1763121;81;25520;-57
2023/07/25 06:03:26;;;;;;;78.85;73.92;;;;;;;23.36;60.57;98808.22;1763144;80;27414;-58
2023/07/25 06:05:52;;;;;;;80.50;75.50;;;;;;;23.45;60.32;98809.75;1749792;80;25501;-58
2023/07/25 06:08:18;;;;;;;80.75;75.85;;;;;;;23.50;59.83;98812.59;1763210;81;25405;-57
2023/07/25 06:10:45;;;;;;;79.90;75.08;;;;;;;23.57;59.94;98801.98;1763120;81;26064;-55
2023/07/25 06:13:11;;;;;;;78.92;74.25;;;;;;;23.63;59.53;98811.27;1763155;80;25635;-58
2023/07/25 06:15:37;;;;;;;77.50;72.58;;;;;;;23.69;58.87;98813.08;1763119;81;29597;-58
2023/07/25 06:18:05;;;;;;;77.60;72.72;;;;;;;23.74;58.94;98813.16;1763000;81;25783;-61
2023/07/25 06:20:32;;;;;;;79.15;74.55;;;;;;;23.77;58.28;98826.09;1749831;81;25698;-61
2023/07/25 06:23:01;;;;;;;76.57;71.77;;;;;;;23.72;57.71;98815.58;1763038;81;25962;-62
2023/07/25 06:25:29;;;;;;;78.28;73.67;;;;;;;23.67;57.71;98813.35;1763280;80;25623;-61
2023/07/25 06:27:55;;;;;;;78.75;74.17;;;;;;;23.68;57.98;98803.84;1763117;81;28000;-61
2023/07/25 06:30:21;;;;;;;77.60;72.47;;;;;;;23.77;58.24;98810.91;1763021;81;25467;-61
2023/07/25 06:32:47;;;;;;;77.80;73.22;;;;;;;23.88;58.22;98809.88;1763114;81;25365;-63
2023/07/25 06:35:14;;;;;;;76.70;72.15;;;;;;;23.95;56.93;98817.97;1763054;80;25581;-62
2023/07/25 06:37:40;;;;;;;75.78;71.47;;;;;;;23.91;56.98;98815.31;1763270;80;25443;-61
2023/07/25 06:40:10;;;;;;;75.50;71.20;;;;;;;23.97;56.90;98821.06;1763274;81;27222;-62
2023/07/25 06:42:36;;;;;;;75.40;71.05;;;;;;;24.07;57.07;98821.38;1763303;81;25590;-63
2023/07/25 06:45:05;;;;;;;76.37;72.00;;;;;;;24.14;56.27;98819.80;1763252;81;25630;-62
2023/07/25 06:47:31;;;;;;;75.65;71.15;;;;;;;24.14;55.93;98813.50;1763351;81;26007;-64
2023/07/25 06:49:59;;;;;;;76.87;72.15;;;;;;;24.18;55.63;98818.34;1763238;81;25416;-62
2023/07/25 06:52:26;;;;;;;75.03;70.32;;;;;;;24.20;55.43;98815.30;1763411;80;27477;-57
2023/07/25 06:54:53;;;;;;;10.20;4.35;;;;;;;24.25;55.39;98815.38;1749885;80;25659;-57
2023/07/25 06:57:19;;;;;;;8.75;7.42;;;;;;;24.30;55.47;98813.45;1763214;81;25476;-67
2023/07/25 06:59:45;;;;;;;26.07;23.92;;;;;;;24.36;54.88;98817.20;1763242;80;25593;-64
2023/07/25 07:02:11;;;;;;;78.20;73.45;;;;;;;24.40;54.93;98820.66;1763231;81;25363;-64
2023/07/25 07:04:37;;;;;;;12.23;11.08;;;;;;;24.49;54.69;98822.00;1763226;81;27420;-66
2023/07/25 07:07:03;;;;;;;12.43;11.38;;;;;;;24.57;54.89;98824.76;1763200;80;25558;-64
2023/07/25 07:09:30;;;;;;;76.57;72.10;;;;;;;24.73;55.09;98816.97;1763194;81;25389;-64
2023/07/25 07:11:57;;;;;;;65.67;61.15;;;;;;;24.89;53.89;98830.70;1763190;81;25429;-64
2023/07/25 07:14:23;;;;;;;45.00;42.23;;;;;;;24.95;54.12;98828.92;1763236;81;25539;-65
2023/07/25 07:16:49;;;;;;;77.17;72.65;;;;;;;25.03;53.95;98835.02;1763300;80;27350;-65
2023/07/25 07:19:15;;;;;;;74.80;70.45;;;;;;;25.17;53.50;98837.94;1763140;81;25618;-65
2023/07/25 07:21:41;;;;;;;74.45;70.03;;;;;;;25.27;53.06;98829.94;1763159;80;25408;-65
2023/07/25 07:24:07;;;;;;;73.75;69.50;;;;;;;25.44;53.12;98835.34;1763200;81;25416;-65
2023/07/25 07:26:33;;;;;;;74.35;69.55;;;;;;;25.61;52.86;98824.86;1763352;81;32306;-65
2023/07/25 07:28:59;;;;;;;72.00;68.00;;;;;;;25.73;51.87;98824.08;1763369;81;27379;-65
2023/07/25 07:31:25;;;;;;;71.57;67.47;;;;;;;25.84;52.60;98822.31;1763267;81;25591;-65
2023/07/25 07:33:52;;;;;;;72.42;68.30;;;;;;;26.10;52.10;98825.77;1763227;81;29691;-66
2023/07/25 07:36:18;;;;;;;75.12;70.97;;;;;;;26.36;50.91;98826.42;1763205;81;25623;-66
2023/07/25 07:38:45;;;;;;;73.20;68.87;;;;;;;26.58;51.04;98834.72;1763186;81;25558;-66
2023/07/25 07:41:11;;;;;;;67.37;63.70;;;;;;;26.88;50.42;98844.13;1763215;81;27279;-66
2023/07/25 07:43:37;;;;;;;74.17;70.15;;;;;;;27.09;49.65;98831.41;1763133;80;25572;-66
2023/07/25 07:46:03;;;;;;;71.20;67.47;;;;;;;27.30;49.73;98833.98;1763231;81;25631;-66
2023/07/25 07:48:29;;;;;;;7.22;4.53;;;;;;;27.53;48.12;98838.97;1763139;81;25364;-66
2023/07/25 07:50:55;;;;;;;69.80;66.10;;;;;;;27.63;47.91;98839.73;1763159;81;25546;-66
2023/07/25 07:53:21;;;;;;;69.60;65.75;;;;;;;27.78;47.65;98835.74;1763158;80;27337;-66
2023/07/25 07:55:48;;;;;;;71.53;67.70;;;;;;;27.97;46.72;98835.78;1763112;81;25517;-66
2023/07/25 07:58:14;;;;;;;69.55;65.40;;;;;;;28.11;46.66;98837.32;1763219;81;25603;-66
2023/07/25 08:00:40;;;;;;;69.47;65.67;;;;;;;28.29;45.77;98843.46;1749828;81;25645;-65
2023/07/25 08:03:06;;;;;;;72.80;68.35;;;;;;;28.39;45.45;98830.95;1763228;81;25630;-65
2023/07/25 08:05:33;;;;;;;71.12;67.12;;;;;;;28.44;44.91;98829.70;1763211;81;28333;-65
2023/07/25 08:07:59;;;;;;;68.83;65.22;;;;;;;28.63;45.39;98840.80;1763094;81;25623;-66
2023/07/25 08:10:26;;;;;;;66.47;62.88;;;;;;;28.84;44.20;98840.42;1749843;81;25639;-67
2023/07/25 08:12:53;;;;;;;69.15;65.55;;;;;;;29.00;44.46;98846.25;1763146;80;25445;-66
2023/07/25 08:15:19;;;;;;;70.85;66.22;;;;;;;29.25;43.96;98839.48;1763171;80;25604;-66
2023/07/25 08:17:45;;;;;;;68.57;64.55;;;;;;;29.41;43.76;98826.56;1763156;81;27363;-69
2023/07/25 08:20:13;;;;;;;68.50;65.00;;;;;;;29.64;43.15;98836.77;1763118;81;25521;-66
2023/07/25 08:22:40;;;;;;;67.57;63.97;;;;;;;29.90;42.58;98840.47;1763376;81;25752;-67
2023/07/25 08:25:07;;;;;;;69.40;65.65;;;;;;;30.17;42.40;98829.09;1749943;81;25516;-66
2023/07/25 08:27:34;;;;;;;66.02;62.62;;;;;;;30.38;40.77;98834.81;1763221;80;25452;-66
2023/07/25 08:30:00;;;;;;;68.57;65.08;;;;;;;30.40;39.69;98842.06;1763119;80;27321;-66
2023/07/25 08:32:26;;;;;;;67.37;63.63;;;;;;;30.37;39.48;98844.42;1763134;80;25444;-65
2023/07/25 08:34:52;;;;;;;66.65;63.02;;;;;;;30.40;39.53;98850.44;1763154;81;25536;-66
2023/07/25 08:37:18;;;;;;;68.87;65.35;;;;;;;30.50;39.25;98850.48;1763133;80;25416;-66
2023/07/25 08:39:44;;;;;;;66.97;63.48;;;;;;;30.47;39.14;98854.86;1763190;80;25572;-69
2023/07/25 08:42:13;;;;;;;67.15;63.28;;;;;;;30.55;37.52;98858.81;1763119;81;27379;-67
2023/07/25 08:44:42;;;;;;;66.05;62.75;;;;;;;30.51;38.22;98841.48;1762991;81;25583;-67
2023/07/25 08:47:19;;;;;;;64.20;60.92;;;;;;;30.63;38.52;98842.44;1763262;81;25706;-67
2023/07/25 08:49:50;;;;;;;66.82;63.42;;;;;;;30.80;37.81;98825.36;1763044;80;25602;-67
2023/07/25 08:52:21;;;;;;;66.42;62.93;;;;;;;30.94;37.46;98824.42;1763266;81;25631;-66
2023/07/25 08:54:49;;;;;;;65.52;62.05;;;;;;;30.99;37.78;98826.53;1763147;81;27409;-66
2023/07/25 08:57:18;;;;;;;66.53;63.23;;;;;;;31.11;37.06;98821.28;1763176;80;27125;-65
2023/07/25 08:59:50;;;;;;;64.82;61.25;;;;;;;30.98;36.04;98808.27;1763271;81;25612;-64
2023/07/25 09:02:18;;;;;;;68.97;65.37;;;;;;;30.91;35.80;98818.54;1763145;80;25491;-66
2023/07/25 09:04:46;;;;;;;64.95;61.55;;;;;;;30.82;36.00;98812.30;1763329;80;25583;-65
2023/07/25 09:07:13;;;;;;;65.15;61.85;;;;;;;30.68;36.01;98806.88;1763304;81;27205;-66
2023/07/25 09:09:41;;;;;;;69.03;65.47;;;;;;;30.53;35.72;98825.05;1763291;80;25705;-66
2023/07/25 09:12:09;;;;;;;66.22;62.85;;;;;;;30.40;36.96;98814.17;1763132;81;25538;-66
2023/07/25 09:14:38;;;;;;;66.53;63.10;;;;;;;30.61;37.05;98824.78;1763108;81;25417;-66
2023/07/25 09:17:07;;;;;;;67.65;64.07;;;;;;;30.59;35.98;98832.88;1763260;81;25424;-66
2023/07/25 09:19:34;;;;;;;66.02;62.70;;;;;;;30.74;36.15;98838.45;1763286;80;27935;-66
2023/07/25 09:22:00;;;;;;;15.58;14.50;;;;;;;31.04;36.70;98838.41;1762934;81;25586;-67
2023/07/25 09:24:40;;;;;;;42.65;40.55;;;;;;;31.29;36.49;98841.18;1749909;81;25610;-66
2023/07/25 09:27:17;;;;;;;67.50;64.00;;;;;;;31.54;35.57;98848.16;1763092;81;25391;-67
2023/07/25 09:29:45;;;;;;;66.37;62.93;;;;;;;31.69;34.92;98855.69;1762991;81;25572;-66
2023/07/25 09:32:25;;;;;;;66.15;62.60;;;;;;;31.39;34.58;98855.80;1763225;81;29607;-66
2023/07/25 09:35:00;;;;;;;69.75;65.72;;;;;;;31.37;35.40;98865.30;1763109;81;25548;-66
2023/07/25 09:37:28;;;;;;;65.42;62.10;;;;;;;31.42;34.53;98875.78;1763166;80;25419;-67
2023/07/25 09:39:54;;;;;;;64.60;61.28;;;;;;;30.89;34.55;98876.88;1763249;81;25618;-67
2023/07/25 09:42:24;;;;;;;64.27;60.95;;;;;;;30.46;34.61;98866.66;1763176;81;25391;-67
2023/07/25 09:44:53;;;;;;;65.50;61.92;;;;;;;26.13;35.83;98188.32;1763144;81;27058;-66
2023/07/25 09:47:25;;;;;;;65.85;62.20;;;;;;;26.15;35.65;98194.16;1763061;81;25559;-67
2023/07/25 09:49:56;;;;;;;65.22;61.92;;;;;;;30.58;36.34;98857.06;1763097;81;25557;-66
2023/07/25 09:52:25;;;;;;;64.42;61.13;;;;;;;30.77;35.30;98859.81;1763153;81;25390;-67
2023/07/25 09:54:52;;;;;;;66.77;63.40;;;;;;;30.63;35.43;98862.76;1763295;80;25587;-68
2023/07/25 09:57:19;;;;;;;64.40;61.10;;;;;;;30.47;35.69;98865.39;1762918;80;27327;-66
2023/07/25 09:59:51;;;;;;;68.52;64.87;;;;;;;30.53;35.88;98859.29;1749965;81;25805;-66
2023/07/25 10:02:19;;;;;;;66.12;62.55;;;;;;;30.56;35.29;98848.41;1763158;81;25319;-67
2023/07/25 10:04:48;;;;;;;66.42;62.85;;;;;;;30.59;35.53;98848.85;1763111;81;25512;-67
2023/07/25 10:07:18;;;;;;;47.98;45.43;;;;;;;30.84;35.79;98851.04;1763178;81;25347;-67
2023/07/25 10:09:47;;;;;;;69.17;65.42;;;;;;;27.56;33.93;98328.52;1763059;81;27286;-66
2023/07/25 10:12:14;;;;;;;45.38;43.13;;;;;;;30.61;33.81;98862.45;1763148;81;25340;-66
2023/07/25 10:14:43;;;;;;;68.85;65.05;;;;;;;30.47;34.42;98868.81;1763329;81;25393;-67
2023/07/25 10:17:11;;;;;;;66.47;63.08;;;;;;;30.30;34.07;98871.27;1763357;81;27472;-66
2023/07/25 10:19:50;;;;;;;66.55;63.15;;;;;;;30.01;33.82;98869.96;1750057;81;25491;-66
2023/07/25 10:22:19;;;;;;;;;;;;;;;29.95;34.41;98864.28;1765573;80;27116;-67
2023/07/25 10:24:46;;;;;;;49.15;46.53;;;;;;;29.93;34.69;98859.82;1756667;81;25384;-67
2023/07/25 10:27:13;;;;;;;64.53;61.05;;;;;;;30.02;34.58;98856.19;1736850;81;25549;-67
2023/07/25 10:29:46;;;;;;;51.88;48.90;;;;;;;29.08;34.08;98681.06;1764857;81;25366;-71
2023/07/25 10:32:17;;;;;;;67.27;63.90;;;;;;;30.24;33.97;98851.66;1764984;81;25372;-67
2023/07/25 10:34:50;;;;;;;66.95;63.52;;;;;;;30.38;33.90;98852.15;1764945;81;27762;-69
2023/07/25 10:37:37;;;;;;;68.50;64.87;;;;;;;30.53;33.68;98841.80;1761896;81;25218;-67
2023/07/25 10:40:17;;;;;;;65.03;61.35;;;;;;;30.62;33.57;98847.89;1765073;81;25532;-67
2023/07/25 10:42:51;;;;;;;67.35;63.98;;;;;;;30.77;33.16;98855.63;1764903;81;25392;-69
2023/07/25 10:45:33;;;;;;;67.50;64.10;;;;;;;30.47;33.26;98857.02;1764933;81;25470;-67
2023/07/25 10:48:01;;;;;;;64.15;60.95;;;;;;;30.14;32.63;98857.92;1764912;81;27207;-68
2023/07/25 10:50:47;;;;;;;67.95;64.45;;;;;;;30.30;33.42;98858.72;1736874;81;26934;-69
2023/07/25 10:53:21;;;;;;;63.17;59.98;;;;;;;30.51;33.21;98857.61;1730679;82;25453;-67
2023/07/25 10:56:08;;;;;;;12.00;11.30;;;;;;;30.66;32.82;98846.42;1731224;82;26098;-68
2023/07/25 10:58:39;;;;;;;66.50;63.10;;;;;;;31.12;33.43;98861.12;1731121;82;25399;-68
2023/07/25 11:01:11;;;;;;;65.28;61.95;;;;;;;31.15;31.79;98855.34;1729871;82;27246;-68
2023/07/25 11:03:39;;;;;;;69.32;65.52;;;;;;;31.10;31.75;98856.02;1728246;82;25513;-67
2023/07/25 11:06:14;;;;;;;63.85;60.50;;;;;;;31.16;30.95;98855.48;1731373;82;25485;-67
2023/07/25 11:08:42;;;;;;;63.02;59.40;;;;;;;31.07;31.45;98872.34;1727957;82;25386;-70
2023/07/25 11:11:12;;;;;;;45.85;43.38;;;;;;;30.95;31.73;98851.86;1731396;82;25481;-67
2023/07/25 11:13:42;;;;;;;71.75;67.27;;;;;;;31.14;31.88;98848.84;1731318;82;29371;-68
2023/07/25 11:16:13;;;;;;;73.83;69.05;;;;;;;31.25;31.78;98849.77;1731323;82;25632;-69
2023/07/25 11:18:51;;;;;;;68.10;64.32;;;;;;;31.25;31.90;98849.01;1731507;82;25420;-67